Historyczne dane pomiarowe

Dodano dane terminowe – wersja testowa.

Dane z okresu 1951-2019

Wersja bazy: 1.34 [2019-03-16, lista zmian], aktualizacja planowana na 2019-04-15

Dane meteo z obszaru Polski uzyskane na podstawie danych udostępnionych przez Instytut Meteorologii i Gospodarki Wodnej – Państwowy Instytut Badawczy.

 

Wybierz Datę:    

       

TemperaturaWilgotnośćWiatrCiśnienieOpadyŚniegCzas trwania zjawisk
 Stacja t tx tn tng RH VA  wxwx mslp ppp RRR   cm mm wxwxwxwxwxwxwx
1999-08-14 14.9 22.0 9.3 5.5 63.0- 5.3 3.7---- 0.0------------
1999-08-13 15.3 21.0 9.3 7.5 62.5- 2.0 3.7---- 0.0------------
1999-08-12 16.7 21.0 11.9 11.5 62.3- 7.3 5.0---- 0.0------------
1999-08-11 19.6 25.0 15.1 13.0 75.5- 2.7 4.3---- 6.0------------
1999-08-10 21.0 29.0 14.4 13.0 69.5- 3.7 3.7---- 4.2------------
1999-08-09 23.7 32.1 15.9 13.5 56.0- 3.0 3.0---- 0.0------------
1999-08-08 22.8 30.5 16.9 14.5 71.8- 5.0 3.0---- 0.0------------
1999-08-07 21.9 30.0 13.9 10.5 65.3- 4.7 3.0---- 0.2------------
1999-08-06 21.3 28.0 16.4 12.5 68.3- 3.3 1.7---- 0.0------------
1999-08-05 19.5 27.0 10.4 7.5 59.3- 2.0 1.7---- 1.2------------
1999-08-04 18.4 26.5 8.8 8.0 66.8- 2.3 2.3---- 0.0------------
1999-08-03 18.3 24.0 11.4 9.0 69.8- 3.7 1.7---- 0.0------------
1999-08-02 16.9 24.0 10.9 10.0 75.3- 7.7 1.7---- 0.0------------
1999-08-01 18.0 25.5 10.4 9.5 56.5- 5.3 3.0---- 1.2------------
1999-07-31 19.2 26.0 10.4 7.0 50.8- 4.0 4.3---- 0.0------------
1999-07-30 18.3 25.0 10.9 7.5 61.5- 1.0 3.0---- 0.0------------
1999-07-29 18.3 24.0 10.9 8.5 55.8- 1.0 2.3---- 0.0------------
1999-07-28 19.2 26.0 12.9 10.5 62.0- 0.3 3.0---- 0.0------------
1999-07-27 18.9 24.0 13.4 10.5 82.0- 7.3 4.3---- 0.0------------
1999-07-26 21.0 27.5 13.4 11.0 61.3- 1.3 3.0---- 0.0------------
1999-07-25 18.4 25.0 10.9 9.0 70.8- 0.7 1.7---- 0.0------------
1999-07-24 17.0 21.5 12.4 11.0 82.5- 7.0 3.0---- 0.0------------
1999-07-23 15.2 20.5 12.9 12.0 80.8- 8.0 3.0---- 6.8------------
1999-07-22 20.3 25.0 15.9 13.0 64.8- 7.0 3.0---- 2.7------------
1999-07-21 23.0 29.5 16.9 13.5 59.8- 2.7 3.0---- 0.0------------
1999-07-20 23.6 30.0 15.9 13.0 53.0- 0.0 3.0---- 0.0------------
1999-07-19 21.3 30.0 11.4 9.0 62.5- 3.0 1.7---- 0.0------------
1999-07-18 19.6 26.0 9.9 8.0 55.0- 0.7 2.3---- 0.0------------
1999-07-17 16.7 23.0 10.9 9.0 67.3- 4.3 1.7---- 0.0------------
1999-07-16 16.4 22.0 11.4 10.0 72.3- 4.0 3.0---- 0.0------------
1999-07-15 17.5 21.0 14.9 14.5 77.5- 7.0 5.0---- 0.0------------
1999-07-14 20.4 27.0 16.9 15.5 79.8- 6.3 2.3---- 8.0------------
1999-07-13 20.6 25.5 16.9 15.0 78.5- 4.7 2.3---- 4.5------------
1999-07-12 21.9 28.0 14.9 12.0 64.8- 3.7 3.0---- 0.2------------
1999-07-11 20.9 24.5 16.9 15.0 53.0- 6.3 3.0---- 0.3------------
1999-07-10 20.1 24.5 16.9 14.5 69.5- 3.3 5.0---- 0.0------------
1999-07-09 19.9 22.5 17.4 16.5 81.0- 5.0 3.0---- 0.0------------
1999-07-08 18.3 20.5 16.4 16.0 88.3- 8.0 4.3---- 2.7------------
1999-07-07 21.8 29.0 18.4 16.5 79.0- 8.0 3.7---- 36.0------------
1999-07-06 24.7 31.9 14.4 13.5 58.3- 2.7 1.7---- 0.0------------
1999-07-05 23.9 31.4 14.4 14.0 63.8- 0.0 1.7---- 0.0------------
1999-07-04 23.0 30.0 12.9 9.5 61.8- 0.0 1.7---- 0.0------------
1999-07-03 20.8 26.0 14.4 12.5 67.5- 2.7 2.3---- 0.0------------
1999-07-02 19.9 25.0 15.9 14.5 73.0- 4.3 2.3---- 0.0------------
1999-07-01 20.0 26.5 11.9 9.5 66.0- 4.0 3.0---- 0.0------------
1999-06-30 20.5 25.6 13.9 11.0 55.5- 1.3 2.3---- 0.0------------
1999-06-29 19.6 24.1 14.4 12.0 65.5- 2.0 3.0---- 0.0------------
1999-06-28 20.4 27.1 12.9 10.0 63.3- 3.3 1.7---- 0.0------------
1999-06-27 19.9 25.6 11.4 7.5 61.3- 0.7 3.0---- 0.0------------
1999-06-26 15.1 22.5 7.3 4.5 74.3- 3.7 1.7---- 0.0------------
1999-06-25 13.1 18.1 5.8 3.5 75.5- 2.3 2.3---- 0.0------------
1999-06-24 11.8 15.1 9.3 9.0 81.5- 6.3 0.7---- 0.0------------
1999-06-23 9.7 11.3 7.8 7.0 93.8- 8.0 2.7---- 2.2------------
1999-06-22 11.0 15.9 7.8 7.5 94.0- 8.0 3.7---- 55.0------------
1999-06-21 18.2 22.5 15.9 12.5 86.3- 8.0 1.3---- 16.6------------
1999-06-20 18.0 20.5 14.4 13.0 73.8- 7.7 2.3---- 2.7------------
1999-06-19 16.3 20.0 13.4 13.0 82.3- 7.7 3.0---- 0.0------------
1999-06-18 17.8 19.5 16.4 15.5 85.8- 8.0 1.0---- 24.5------------
1999-06-17 18.4 21.0 16.4 16.0 93.5- 8.0 1.7---- 15.0------------
1999-06-16 17.8 20.5 15.9 15.0 91.8- 8.0 1.7---- 10.7------------
270.4 ms

 

Źródłem pochodzenia danych jest Instytut Meteorologii i Gospodarki Wodnej – Państwowy Instytut Badawczy. Dane Instytutu Meteorologii i Gospodarki Wodnej – Państwowego Instytutu Badawczego zostały przetworzone.

Dane źródłowe można odnaleźć na stronie https://dane.imgw.pl